createdAt,value
2022-12-15T00:00:41.090Z,-3.52
2022-12-15T00:03:26.603Z,-3.48
2022-12-15T00:06:12.486Z,-3.58
2022-12-15T00:08:59.060Z,-3.47
2022-12-15T00:11:44.595Z,-3.41
2022-12-15T00:14:30.525Z,-3.33
2022-12-15T00:17:17.009Z,-3.37
2022-12-15T00:20:03.602Z,-3.39
2022-12-15T00:22:49.419Z,-3.38
2022-12-15T00:25:35.533Z,-3.40
2022-12-15T00:28:21.338Z,-3.40
2022-12-15T00:31:06.968Z,-3.39
2022-12-15T00:33:53.616Z,-3.48
2022-12-15T00:36:39.039Z,-3.49
2022-12-15T00:39:06.776Z,-3.49
2022-12-15T00:41:36.665Z,-3.62
2022-12-15T00:44:06.275Z,-3.63
2022-12-15T00:46:51.948Z,-3.59
2022-12-15T00:49:38.554Z,-3.58
2022-12-15T00:52:23.861Z,-3.57
2022-12-15T00:55:09.284Z,-3.57
2022-12-15T00:57:54.512Z,-3.49
2022-12-15T01:00:40.055Z,-3.66
2022-12-15T01:03:33.308Z,-3.56
2022-12-15T01:06:23.927Z,-3.61
2022-12-15T01:09:09.287Z,-3.61
2022-12-15T01:11:55.029Z,-3.65
2022-12-15T01:14:40.864Z,-3.75
2022-12-15T01:17:25.923Z,-3.73
2022-12-15T01:20:11.283Z,-3.80
2022-12-15T01:22:41.294Z,-3.82
2022-12-15T01:25:11.129Z,-3.77
2022-12-15T01:27:39.908Z,-3.70
2022-12-15T01:30:10.036Z,-3.69
2022-12-15T01:32:42.736Z,-3.73
2022-12-15T01:35:14.750Z,-3.65
2022-12-15T01:37:43.940Z,-3.74
2022-12-15T01:40:32.638Z,-3.87
2022-12-15T01:43:00.342Z,-3.87
2022-12-15T01:45:53.725Z,-3.91
2022-12-15T01:48:27.944Z,-3.88
2022-12-15T01:51:02.755Z,-3.91
2022-12-15T01:53:35.768Z,-3.87
2022-12-15T01:56:06.544Z,-4.04
2022-12-15T01:58:36.434Z,-3.92
2022-12-15T02:03:40.696Z,-3.80
2022-12-15T02:06:11.955Z,-3.80
2022-12-15T02:08:42.325Z,-3.92
2022-12-15T02:11:37.453Z,-3.81
2022-12-15T02:14:07.614Z,-3.87
2022-12-15T02:16:51.467Z,-4.03
2022-12-15T02:19:48.304Z,-4.05
2022-12-15T02:22:34.771Z,-3.90
2022-12-15T02:25:22.893Z,-3.85
2022-12-15T02:27:57.918Z,-4.03
2022-12-15T02:30:34.767Z,-3.91
2022-12-15T02:33:09.179Z,-3.85
2022-12-15T02:35:57.907Z,-4.00
2022-12-15T02:38:30.818Z,-3.98
2022-12-15T02:40:59.817Z,-4.04
2022-12-15T02:43:30.024Z,-4.12
2022-12-15T02:46:11.669Z,-4.22
2022-12-15T02:48:52.386Z,-4.55
2022-12-15T02:51:34.971Z,-4.49
2022-12-15T02:54:38.784Z,-4.44
2022-12-15T02:57:16.913Z,-4.44
2022-12-15T02:59:55.525Z,-4.48
2022-12-15T03:02:28.934Z,-4.58
2022-12-15T03:04:57.694Z,-4.47
2022-12-15T03:07:27.696Z,-4.30
2022-12-15T03:09:56.551Z,-4.22
2022-12-15T03:12:24.353Z,-4.18
2022-12-15T03:14:52.075Z,-4.19
2022-12-15T03:17:19.774Z,-4.10
2022-12-15T03:19:49.983Z,-4.04
2022-12-15T03:22:17.939Z,-4.22
2022-12-15T03:24:45.778Z,-4.16
2022-12-15T03:27:13.556Z,-4.12
2022-12-15T03:29:42.264Z,-4.08
2022-12-15T03:32:10.141Z,-4.10
2022-12-15T03:34:37.952Z,-4.04
2022-12-15T03:37:07.272Z,-3.98
2022-12-15T03:39:34.924Z,-3.93
2022-12-15T03:42:02.719Z,-3.95
2022-12-15T03:44:30.628Z,-3.93
2022-12-15T03:47:02.931Z,-3.91
2022-12-15T03:49:31.327Z,-3.94
2022-12-15T03:51:59.007Z,-3.90
2022-12-15T03:54:28.081Z,-3.82
2022-12-15T03:56:55.769Z,-3.85
2022-12-15T03:59:23.468Z,-3.85
2022-12-15T04:01:51.299Z,-3.81
2022-12-15T04:04:19.068Z,-3.80
2022-12-15T04:06:46.775Z,-3.88
2022-12-15T04:09:14.439Z,-3.88
2022-12-15T04:11:44.254Z,-3.85
2022-12-15T04:14:11.932Z,-3.80
2022-12-15T04:16:39.689Z,-3.85
2022-12-15T04:19:39.383Z,-3.92
2022-12-15T04:22:07.302Z,-4.00
2022-12-15T04:24:52.795Z,-3.95
2022-12-15T04:27:39.724Z,-3.95
2022-12-15T04:30:25.981Z,-3.92
2022-12-15T04:33:11.594Z,-3.85
2022-12-15T04:35:57.943Z,-3.77
2022-12-15T04:38:50.535Z,-3.74
2022-12-15T04:41:39.484Z,-3.75
2022-12-15T04:44:27.001Z,-3.71
2022-12-15T04:47:12.299Z,-3.75
2022-12-15T04:49:57.573Z,-3.73
2022-12-15T04:52:42.839Z,-3.90
2022-12-15T04:55:28.303Z,-3.96
2022-12-15T04:58:15.980Z,-3.89
2022-12-15T05:01:02.685Z,-3.83
2022-12-15T05:03:47.998Z,-3.85
2022-12-15T05:06:33.123Z,-3.85
2022-12-15T05:09:18.462Z,-3.84
2022-12-15T05:12:03.748Z,-3.81
2022-12-15T05:14:49.570Z,-3.79
2022-12-15T05:17:41.363Z,-3.82
2022-12-15T05:20:28.302Z,-3.79
2022-12-15T05:23:13.976Z,-3.81
2022-12-15T05:25:59.800Z,-3.73
2022-12-15T05:28:45.988Z,-3.67
2022-12-15T05:31:31.455Z,-3.64
2022-12-15T05:34:05.184Z,-3.63
2022-12-15T05:36:33.691Z,-3.61
2022-12-15T05:39:01.360Z,-3.63
2022-12-15T05:41:29.770Z,-3.65
2022-12-15T05:43:59.450Z,-3.61
2022-12-15T05:46:27.531Z,-3.58
2022-12-15T05:48:55.248Z,-3.59
2022-12-15T05:51:24.660Z,-3.58
2022-12-15T05:53:52.338Z,-3.55
2022-12-15T05:56:20.095Z,-3.57
2022-12-15T05:58:48.139Z,-3.56
2022-12-15T06:01:18.384Z,-3.51
2022-12-15T06:03:46.436Z,-3.58
2022-12-15T06:06:14.652Z,-3.56
2022-12-15T06:08:44.288Z,-3.55
2022-12-15T06:11:13.689Z,-3.55
2022-12-15T06:13:43.306Z,-3.47
2022-12-15T06:16:14.020Z,-3.39
2022-12-15T06:18:43.868Z,-3.40
2022-12-15T06:21:20.655Z,-3.35
2022-12-15T06:23:49.722Z,-3.36
2022-12-15T06:26:20.692Z,-3.33
2022-12-15T06:28:48.823Z,-3.29
2022-12-15T06:31:18.606Z,-3.33
2022-12-15T06:33:46.372Z,-3.30
2022-12-15T06:36:18.369Z,-3.30
2022-12-15T06:38:49.970Z,-3.33
2022-12-15T06:41:21.938Z,-3.39
2022-12-15T06:43:52.813Z,-3.41
2022-12-15T06:46:21.139Z,-3.39
2022-12-15T06:48:49.944Z,-3.39
2022-12-15T06:51:18.696Z,-3.39
2022-12-15T06:53:48.852Z,-3.38
2022-12-15T06:56:27.229Z,-3.41
2022-12-15T06:59:00.499Z,-3.47
2022-12-15T07:01:28.760Z,-3.46
2022-12-15T07:03:56.849Z,-3.42
2022-12-15T07:06:24.886Z,-3.36
2022-12-15T07:08:56.394Z,-3.41
2022-12-15T07:11:25.427Z,-3.40
2022-12-15T07:13:54.290Z,-3.40
2022-12-15T07:16:23.352Z,-3.42
2022-12-15T07:18:51.558Z,-3.37
2022-12-15T07:21:19.538Z,-3.35
2022-12-15T07:23:56.708Z,-3.31
2022-12-15T07:26:26.556Z,-3.24
2022-12-15T07:28:54.868Z,-3.19
2022-12-15T07:31:23.452Z,-3.20
2022-12-15T07:33:52.253Z,-3.22
2022-12-15T07:36:20.558Z,-3.18
2022-12-15T07:38:50.409Z,-3.12
2022-12-15T07:41:20.859Z,-3.12
2022-12-15T07:43:50.548Z,-3.11
2022-12-15T07:46:18.975Z,-3.07
2022-12-15T07:48:50.831Z,-3.21
2022-12-15T07:51:20.892Z,-3.20
2022-12-15T07:53:51.072Z,-3.18
2022-12-15T07:56:20.672Z,-3.14
2022-12-15T07:58:49.768Z,-3.13
2022-12-15T08:01:17.940Z,-3.16
2022-12-15T08:03:45.998Z,-3.22
2022-12-15T08:06:16.690Z,-3.16
2022-12-15T08:08:49.913Z,-3.11
2022-12-15T08:11:20.800Z,-3.08
2022-12-15T08:14:10.617Z,-3.03
2022-12-15T08:16:39.970Z,-2.95
2022-12-15T08:19:08.796Z,-2.90
2022-12-15T08:21:36.459Z,-2.83
2022-12-15T08:24:04.339Z,-2.85
2022-12-15T08:26:32.054Z,-2.85
2022-12-15T08:29:40.569Z,-2.80
2022-12-15T08:31:53.054Z,-2.77
2022-12-15T08:34:21.438Z,-2.68
2022-12-15T08:36:49.269Z,-2.63
2022-12-15T08:39:17.504Z,-2.55
2022-12-15T08:41:45.386Z,-2.48
2022-12-15T08:44:17.026Z,-2.44
2022-12-15T08:46:44.891Z,-2.38
2022-12-15T08:49:17.901Z,-2.33
2022-12-15T08:51:49.995Z,-2.28
2022-12-15T08:54:19.420Z,-2.23
2022-12-15T08:56:47.635Z,-2.23
2022-12-15T08:59:17.167Z,-2.16
2022-12-15T09:01:45.214Z,-2.12
2022-12-15T09:04:13.188Z,-2.10
2022-12-15T09:06:41.019Z,-2.05
2022-12-15T09:09:12.496Z,-1.98
2022-12-15T09:11:40.389Z,-1.94
2022-12-15T09:14:08.356Z,-1.89
2022-12-15T09:16:37.812Z,-1.81
2022-12-15T09:19:05.743Z,-1.74
2022-12-15T09:21:33.601Z,-1.72
2022-12-15T09:24:02.714Z,-1.65
2022-12-15T09:26:32.659Z,-1.60
2022-12-15T09:29:01.882Z,-1.57
2022-12-15T09:31:32.599Z,-1.44
2022-12-15T09:34:03.557Z,-1.32
2022-12-15T09:36:33.241Z,-1.25
2022-12-15T09:39:02.809Z,-1.15
2022-12-15T09:41:33.358Z,-1.09
2022-12-15T09:44:04.445Z,-1.05
2022-12-15T09:46:43.049Z,-1.03
2022-12-15T09:49:26.269Z,-1.02
2022-12-15T09:52:04.589Z,-1.00
2022-12-15T09:54:36.145Z,-0.97
2022-12-15T09:57:09.332Z,-0.94
2022-12-15T09:59:44.789Z,-0.94
2022-12-15T10:02:32.811Z,-0.93
2022-12-15T10:05:11.851Z,-0.89
2022-12-15T10:07:46.060Z,-0.82
2022-12-15T10:10:19.283Z,-0.85
2022-12-15T10:12:59.860Z,-0.84
2022-12-15T10:15:36.249Z,-0.93
2022-12-15T10:18:12.697Z,-0.96
2022-12-15T10:20:42.176Z,-0.96
2022-12-15T10:23:13.800Z,-0.92
2022-12-15T10:25:48.048Z,-0.80
2022-12-15T10:28:51.200Z,-0.71
2022-12-15T10:31:25.627Z,-0.58
2022-12-15T10:33:58.717Z,-0.58
2022-12-15T10:36:27.941Z,-0.49
2022-12-15T10:38:55.557Z,-0.40
2022-12-15T10:41:25.692Z,-0.39
2022-12-15T10:43:55.065Z,-0.32
2022-12-15T10:46:24.905Z,-0.31
2022-12-15T10:48:55.588Z,-0.29
2022-12-15T10:51:28.933Z,-0.26
2022-12-15T10:54:06.705Z,-0.30
2022-12-15T10:56:35.229Z,-0.22
2022-12-15T10:59:05.500Z,-0.18
2022-12-15T11:01:35.455Z,-0.17
2022-12-15T11:04:04.744Z,-0.15
2022-12-15T11:06:36.783Z,-0.13
2022-12-15T11:09:34.001Z,-0.06
2022-12-15T11:12:20.325Z,-0.03
2022-12-15T11:14:51.258Z,0.01
2022-12-15T11:17:21.311Z,0.01
2022-12-15T11:19:58.270Z,0.02
2022-12-15T11:22:39.206Z,0.05
2022-12-15T11:25:21.584Z,0.07
2022-12-15T11:27:51.086Z,0.04
2022-12-15T11:30:23.205Z,0.03
2022-12-15T11:32:54.323Z,0.04
2022-12-15T11:35:27.304Z,0.01
2022-12-15T11:38:03.497Z,-0.01
2022-12-15T11:40:39.739Z,0.04
2022-12-15T11:43:24.979Z,0.05
2022-12-15T11:46:05.151Z,0.06
2022-12-15T11:48:43.029Z,0.06
2022-12-15T11:51:17.885Z,0.06
2022-12-15T11:54:01.718Z,0.08
2022-12-15T11:56:34.984Z,0.11
2022-12-15T11:59:38.944Z,0.18
2022-12-15T12:02:37.658Z,0.19
2022-12-15T12:05:26.408Z,0.37
2022-12-15T12:08:02.617Z,0.49
2022-12-15T12:10:38.674Z,0.61
2022-12-15T12:13:22.488Z,0.82
2022-12-15T12:15:58.646Z,1.06
2022-12-15T12:18:30.661Z,1.30
2022-12-15T12:21:07.175Z,1.50
2022-12-15T12:23:39.536Z,1.71
2022-12-15T12:26:16.836Z,1.88
2022-12-15T12:28:50.852Z,2.06
2022-12-15T12:31:27.187Z,2.19
2022-12-15T12:33:59.633Z,2.33
2022-12-15T12:36:27.441Z,2.52
2022-12-15T12:38:58.031Z,2.64
2022-12-15T12:41:35.631Z,2.73
2022-12-15T12:44:12.958Z,2.54
2022-12-15T12:46:43.709Z,2.26
2022-12-15T12:49:21.390Z,2.05
2022-12-15T12:51:56.508Z,1.88
2022-12-15T12:54:42.879Z,1.77
2022-12-15T12:57:35.838Z,1.63
2022-12-15T13:00:15.147Z,1.55
2022-12-15T13:03:17.824Z,1.48
2022-12-15T13:05:48.826Z,1.33
2022-12-15T13:08:51.426Z,1.33
2022-12-15T13:14:51.767Z,1.28
2022-12-15T13:17:32.292Z,1.17
2022-12-15T13:20:31.881Z,1.19
2022-12-15T13:23:36.953Z,1.15
2022-12-15T13:26:14.588Z,1.08
2022-12-15T13:28:45.948Z,1.09
2022-12-15T13:31:39.309Z,1.08
2022-12-15T13:34:27.151Z,1.11
2022-12-15T13:37:00.765Z,1.09
2022-12-15T13:39:57.682Z,1.07
2022-12-15T13:42:35.004Z,1.06
2022-12-15T13:45:38.119Z,1.06
2022-12-15T13:48:19.250Z,0.97
2022-12-15T13:50:53.848Z,0.97
2022-12-15T13:53:24.377Z,0.93
2022-12-15T13:56:02.056Z,0.91
2022-12-15T13:58:34.668Z,0.88
2022-12-15T14:01:03.911Z,0.79
2022-12-15T14:03:32.257Z,0.81
2022-12-15T14:06:02.453Z,0.83
2022-12-15T14:08:32.014Z,0.81
2022-12-15T14:11:16.603Z,0.84
2022-12-15T14:16:40.419Z,0.82
2022-12-15T14:19:15.621Z,0.81
2022-12-15T14:21:52.132Z,0.81
2022-12-15T14:24:38.539Z,0.83
2022-12-15T14:27:08.193Z,0.81
2022-12-15T14:29:36.366Z,0.78
2022-12-15T14:32:05.105Z,0.80
2022-12-15T14:34:36.924Z,0.77
2022-12-15T14:37:09.654Z,0.71
2022-12-15T14:39:42.361Z,0.71
2022-12-15T14:42:17.518Z,0.68
2022-12-15T14:44:49.972Z,0.70
2022-12-15T14:47:23.274Z,0.68
2022-12-15T14:49:52.579Z,0.63
2022-12-15T14:52:29.282Z,0.54
2022-12-15T14:54:59.083Z,0.53
2022-12-15T14:57:29.322Z,0.49
2022-12-15T14:59:57.406Z,0.53
2022-12-15T15:02:27.710Z,0.53
2022-12-15T15:03:11.194Z,1.31
2022-12-15T15:04:59.652Z,0.57
2022-12-15T15:07:29.605Z,0.56
2022-12-15T15:09:58.691Z,0.58
2022-12-15T15:12:46.697Z,0.57
2022-12-15T15:15:17.926Z,0.56
2022-12-15T15:17:51.198Z,0.57
2022-12-15T15:20:21.568Z,0.59
2022-12-15T15:23:04.938Z,0.55
2022-12-15T15:25:41.416Z,0.56
2022-12-15T15:28:16.318Z,0.51
2022-12-15T15:30:48.289Z,0.49
2022-12-15T15:33:17.383Z,0.53
2022-12-15T15:35:47.992Z,0.53
2022-12-15T15:38:23.646Z,0.49
2022-12-15T15:40:52.787Z,0.49
2022-12-15T15:43:20.732Z,0.45
2022-12-15T15:45:50.215Z,0.44
2022-12-15T15:48:26.240Z,0.42
2022-12-15T15:50:54.855Z,0.47
2022-12-15T15:53:25.871Z,0.42
2022-12-15T15:55:55.964Z,0.44
2022-12-15T15:58:23.810Z,0.48
2022-12-15T16:00:53.427Z,0.46
2022-12-15T16:03:21.387Z,0.47
2022-12-15T16:05:50.225Z,0.48
2022-12-15T16:08:21.124Z,0.48
2022-12-15T16:10:51.073Z,0.46
2022-12-15T16:13:26.215Z,0.47
2022-12-15T16:15:56.816Z,0.46
2022-12-15T16:18:24.840Z,0.35
2022-12-15T16:20:53.596Z,0.29
2022-12-15T16:23:27.569Z,0.20
2022-12-15T16:25:59.795Z,0.16
2022-12-15T16:28:31.163Z,0.14
2022-12-15T16:31:01.344Z,0.18
2022-12-15T16:33:29.465Z,0.18
2022-12-15T16:35:59.012Z,0.20
2022-12-15T16:38:30.106Z,0.17
2022-12-15T16:41:06.589Z,0.12
2022-12-15T16:43:39.146Z,0.13
2022-12-15T16:46:12.991Z,0.13
2022-12-15T16:48:41.290Z,0.09
2022-12-15T16:51:19.472Z,0.07
2022-12-15T16:53:47.467Z,0.02
2022-12-15T16:56:16.804Z,-0.05
2022-12-15T16:58:48.773Z,-0.11
2022-12-15T17:01:17.274Z,-0.13
2022-12-15T17:03:45.501Z,-0.15
2022-12-15T17:06:16.524Z,-0.22
2022-12-15T17:08:47.366Z,-0.24
2022-12-15T17:11:19.977Z,-0.19
2022-12-15T17:13:51.205Z,-0.21
2022-12-15T17:16:21.125Z,-0.19
2022-12-15T17:18:49.838Z,-0.18
2022-12-15T17:21:20.822Z,-0.13
2022-12-15T17:23:51.276Z,-0.20
2022-12-15T17:26:29.265Z,-0.21
2022-12-15T17:29:01.335Z,-0.19
2022-12-15T17:31:35.259Z,-0.21
2022-12-15T17:34:23.618Z,-0.28
2022-12-15T17:36:52.167Z,-0.29
2022-12-15T17:39:21.201Z,-0.40
2022-12-15T17:41:59.885Z,-0.41
2022-12-15T17:44:35.130Z,-0.46
2022-12-15T17:47:05.323Z,-0.49
2022-12-15T17:49:36.119Z,-0.62
2022-12-15T17:52:09.054Z,-0.58
2022-12-15T17:54:36.867Z,-0.57
2022-12-15T17:57:06.091Z,-0.55
2022-12-15T17:59:33.822Z,-0.54
2022-12-15T18:02:01.772Z,-0.56
2022-12-15T18:04:29.542Z,-0.61
2022-12-15T18:07:02.100Z,-0.64
2022-12-15T18:09:31.432Z,-0.61
2022-12-15T18:12:31.949Z,-0.66
2022-12-15T18:14:59.847Z,-0.57
2022-12-15T18:17:28.217Z,-0.57
2022-12-15T18:19:56.237Z,-0.60
2022-12-15T18:22:25.336Z,-0.73
2022-12-15T18:24:55.012Z,-0.75
2022-12-15T18:27:24.557Z,-0.65
2022-12-15T18:29:56.328Z,-0.69
2022-12-15T18:32:26.861Z,-0.76
2022-12-15T18:34:54.971Z,-0.80
2022-12-15T18:37:24.508Z,-0.84
2022-12-15T18:39:53.308Z,-0.87
2022-12-15T18:42:22.750Z,-0.88
2022-12-15T18:44:52.482Z,-0.90
2022-12-15T18:47:24.843Z,-0.87
2022-12-15T18:49:52.634Z,-0.89
2022-12-15T18:52:22.571Z,-0.79
2022-12-15T18:54:52.154Z,-0.79
2022-12-15T18:57:27.873Z,-0.78
2022-12-15T18:59:58.388Z,-0.74
2022-12-15T19:02:27.429Z,-0.80
2022-12-15T19:04:55.262Z,-0.89
2022-12-15T19:07:23.004Z,-0.95
2022-12-15T19:09:51.135Z,-0.91
2022-12-15T19:12:19.097Z,-0.96
2022-12-15T19:14:48.087Z,-0.96
2022-12-15T19:17:35.230Z,-0.91
2022-12-15T19:20:24.888Z,-1.01
2022-12-15T19:22:53.377Z,-0.93
2022-12-15T19:25:26.268Z,-0.85
2022-12-15T19:27:58.534Z,-0.84
2022-12-15T19:30:28.609Z,-0.77
2022-12-15T19:32:57.231Z,-0.72
2022-12-15T19:35:27.197Z,-0.70
2022-12-15T19:37:57.607Z,-0.74
2022-12-15T19:40:27.411Z,-0.74
2022-12-15T19:42:55.517Z,-0.84
2022-12-15T19:45:25.245Z,-0.93
2022-12-15T19:47:53.494Z,-0.95
2022-12-15T19:50:24.066Z,-1.01
2022-12-15T19:52:57.848Z,-1.09
2022-12-15T19:55:29.180Z,-1.01
2022-12-15T19:57:57.067Z,-1.01
2022-12-15T20:00:25.704Z,-1.05
2022-12-15T20:02:55.155Z,-0.95
2022-12-15T20:05:24.064Z,-0.92
2022-12-15T20:07:54.710Z,-0.91
2022-12-15T20:10:31.751Z,-0.92
2022-12-15T20:13:01.054Z,-0.86
2022-12-15T20:15:29.051Z,-0.84
2022-12-15T20:17:57.453Z,-0.92
2022-12-15T20:20:27.840Z,-1.08
2022-12-15T20:23:00.641Z,-1.11
2022-12-15T20:25:31.104Z,-1.10
2022-12-15T20:28:00.161Z,-1.21
2022-12-15T20:30:32.327Z,-1.31
2022-12-15T20:33:00.675Z,-1.28
2022-12-15T20:35:28.457Z,-1.21
2022-12-15T20:37:57.612Z,-1.15
2022-12-15T20:40:29.584Z,-1.14
2022-12-15T20:42:58.538Z,-1.18
2022-12-15T20:45:27.774Z,-1.19
2022-12-15T20:47:56.817Z,-1.12
2022-12-15T20:50:29.216Z,-1.10
2022-12-15T20:52:58.731Z,-1.07
2022-12-15T20:55:26.601Z,-1.11
2022-12-15T20:57:54.933Z,-1.14
2022-12-15T21:00:23.656Z,-1.06
2022-12-15T21:02:52.093Z,-1.02
2022-12-15T21:05:25.559Z,-0.99
2022-12-15T21:07:53.700Z,-1.00
2022-12-15T21:10:22.692Z,-0.96
2022-12-15T21:12:51.571Z,-1.01
2022-12-15T21:15:22.804Z,-1.02
2022-12-15T21:18:11.042Z,-0.90
2022-12-15T21:20:41.943Z,-0.80
2022-12-15T21:23:20.360Z,-0.70
2022-12-15T21:25:49.614Z,-0.70
2022-12-15T21:28:18.580Z,-0.72
2022-12-15T21:30:46.356Z,-0.79
2022-12-15T21:33:14.619Z,-0.79
2022-12-15T21:35:46.000Z,-0.84
2022-12-15T21:38:32.525Z,-0.79
2022-12-15T21:41:04.596Z,-0.87
2022-12-15T21:43:34.106Z,-1.02
2022-12-15T21:46:03.308Z,-1.08
2022-12-15T21:49:03.210Z,-1.02
2022-12-15T21:51:36.035Z,-1.10
2022-12-15T21:54:05.797Z,-1.08
2022-12-15T21:56:36.481Z,-1.37
2022-12-15T21:59:12.444Z,-1.33
2022-12-15T22:01:40.894Z,-1.33
2022-12-15T22:04:16.212Z,-1.29
2022-12-15T22:06:49.973Z,-1.39
2022-12-15T22:09:19.275Z,-1.42
2022-12-15T22:11:50.820Z,-1.40
2022-12-15T22:14:24.849Z,-1.43
2022-12-15T22:16:52.908Z,-1.30
2022-12-15T22:19:20.727Z,-1.30
2022-12-15T22:21:48.558Z,-1.53
2022-12-15T22:24:17.193Z,-1.56
2022-12-15T22:26:45.384Z,-1.65
2022-12-15T22:29:18.985Z,-1.56
2022-12-15T22:31:47.850Z,-1.63
2022-12-15T22:34:17.783Z,-1.57
2022-12-15T22:36:45.450Z,-1.56
2022-12-15T22:39:14.713Z,-1.72
2022-12-15T22:41:44.558Z,-1.73
2022-12-15T22:44:17.992Z,-1.63
2022-12-15T22:46:45.744Z,-1.57
2022-12-15T22:49:15.978Z,-1.65
2022-12-15T22:51:43.610Z,-1.63
2022-12-15T22:54:21.902Z,-1.59
2022-12-15T22:56:54.834Z,-1.60
2022-12-15T22:59:30.023Z,-1.56
2022-12-15T23:01:57.798Z,-1.51
2022-12-15T23:04:25.863Z,-1.55
2022-12-15T23:06:53.615Z,-1.58
2022-12-15T23:09:22.585Z,-1.58
2022-12-15T23:11:49.284Z,-1.55
2022-12-15T23:14:18.990Z,-1.56
2022-12-15T23:16:47.089Z,-1.49
2022-12-15T23:19:23.844Z,-1.46
2022-12-15T23:21:51.917Z,-1.46
2022-12-15T23:24:19.826Z,-1.45
2022-12-15T23:26:47.493Z,-1.44
2022-12-15T23:29:15.323Z,-1.37
2022-12-15T23:31:44.437Z,-1.30
2022-12-15T23:34:13.587Z,-1.23
2022-12-15T23:36:41.238Z,-1.30
2022-12-15T23:39:08.911Z,-1.45
2022-12-15T23:41:36.914Z,-1.41
2022-12-15T23:44:05.565Z,-1.35
2022-12-15T23:46:33.670Z,-1.38
2022-12-15T23:49:01.313Z,-1.37
2022-12-15T23:51:30.271Z,-1.50
2022-12-15T23:53:58.869Z,-1.57
2022-12-15T23:56:27.171Z,-1.59
2022-12-15T23:58:57.636Z,-1.63
